Time;durP1;ratioP1;P1;durP2;ratioP2;P2;SDS_P1;SDS_P2;PMS_P1;PMS_P2;Temp;Humidity;BMP_temperature;BMP_pressure;BME280_temperature;BME280_humidity;BME280_pressure;Samples;Min_cycle;Max_cycle;Signal;HPM_P1;HPM_P2
2022/04/25 00:00:21;;;;;;;14.70;8.70;;;;;;;10.74;55.50;101130.41;5185223;28;20407;-51
2022/04/25 00:02:53;;;;;;;17.42;9.02;;;;;;;10.76;55.48;101134.59;5183540;28;20615;-49
2022/04/25 00:05:26;;;;;;;15.25;8.75;;;;;;;10.80;55.50;101124.56;5177771;28;20415;-54
2022/04/25 00:07:58;;;;;;;13.15;9.73;;;;;;;10.79;55.58;101128.19;5188888;28;20407;-50
2022/04/25 00:10:31;;;;;;;14.27;9.40;;;;;;;10.81;55.60;101123.59;5184905;28;20459;-48
2022/04/25 00:13:03;;;;;;;21.65;10.52;;;;;;;10.78;55.46;101118.59;5187167;28;20486;-49
2022/04/25 00:15:37;;;;;;;15.23;9.55;;;;;;;10.93;55.51;101124.22;5186351;28;20852;-50
2022/04/25 00:18:10;;;;;;;15.77;10.60;;;;;;;10.97;55.61;101126.44;5187434;28;20427;-53
2022/04/25 00:20:42;;;;;;;13.25;9.20;;;;;;;11.00;55.60;101125.34;5184489;28;20882;-49
2022/04/25 00:23:15;;;;;;;16.90;9.50;;;;;;;11.05;55.62;101125.72;5169953;28;20851;-49
2022/04/25 00:25:48;;;;;;;15.75;8.57;;;;;;;11.07;55.67;101124.59;5180803;28;20982;-48
2022/04/25 00:28:21;;;;;;;14.93;9.23;;;;;;;11.14;55.52;101126.66;5186206;28;20824;-48
2022/04/25 00:30:55;;;;;;;16.48;8.93;;;;;;;11.21;55.48;101127.72;5184789;28;20902;-54
2022/04/25 00:33:27;;;;;;;15.20;8.32;;;;;;;11.23;55.36;101120.50;5188936;28;20450;-49
2022/04/25 00:36:00;;;;;;;16.27;8.40;;;;;;;11.21;55.57;101109.22;5185288;28;20410;-48
2022/04/25 00:38:32;;;;;;;17.47;9.33;;;;;;;11.22;55.65;101110.91;5185894;28;20922;-51
2022/04/25 00:41:07;;;;;;;15.07;8.35;;;;;;;11.27;55.69;101116.56;5186485;28;20512;-54
2022/04/25 00:43:39;;;;;;;15.73;8.97;;;;;;;11.26;55.63;101109.63;5187031;28;20494;-49
2022/04/25 00:46:36;;;;;;;19.85;9.77;;;;;;;11.28;55.60;101102.38;5186196;28;20642;-52
2022/04/25 00:49:08;;;;;;;15.40;8.40;;;;;;;11.33;55.56;101110.69;5178750;28;20457;-53
2022/04/25 00:51:41;;;;;;;14.48;8.90;;;;;;;11.38;55.48;101111.09;5184209;28;20510;-50
2022/04/25 00:54:14;;;;;;;14.27;7.53;;;;;;;11.40;55.39;101109.13;5189727;28;20424;-52
2022/04/25 00:56:48;;;;;;;16.02;9.05;;;;;;;11.39;55.51;101109.25;5189631;28;20473;-50
2022/04/25 00:59:22;;;;;;;15.67;8.47;;;;;;;11.22;55.60;101098.50;5182210;28;20435;-53
2022/04/25 01:01:56;;;;;;;21.02;8.32;;;;;;;11.26;55.72;101104.31;5180942;28;20799;-47
2022/04/25 01:04:29;;;;;;;15.70;9.07;;;;;;;11.29;55.79;101109.31;5186374;28;20984;-51
2022/04/25 01:07:01;;;;;;;17.92;8.32;;;;;;;11.28;55.56;101105.03;5181063;28;20436;-51
2022/04/25 01:09:34;;;;;;;12.57;8.57;;;;;;;11.24;55.55;101098.34;5182285;28;20592;-50
2022/04/25 01:12:08;;;;;;;13.98;8.20;;;;;;;11.25;55.54;101103.50;5185717;28;20423;-49
2022/04/25 01:14:41;;;;;;;20.47;8.40;;;;;;;11.23;55.52;101099.34;5185637;28;20422;-52
2022/04/25 01:17:17;;;;;;;18.98;8.48;;;;;;;10.87;55.37;101072.81;5183703;28;20717;-47
2022/04/25 01:19:50;;;;;;;17.33;8.90;;;;;;;11.09;55.73;101098.03;5186198;28;20500;-52
2022/04/25 01:22:29;;;;;;;16.13;8.27;;;;;;;11.06;55.55;101104.44;5171149;28;20411;-48
2022/04/25 01:27:53;;;;;;;14.70;7.93;;;;;;;10.90;55.79;101103.38;5174287;28;20455;-47
2022/04/25 01:30:25;;;;;;;16.33;8.70;;;;;;;10.80;55.89;101098.13;5183821;28;20442;-52
2022/04/25 01:32:58;;;;;;;14.05;8.93;;;;;;;10.79;55.95;101102.59;5181086;28;20414;-52
2022/04/25 01:35:31;;;;;;;17.25;9.30;;;;;;;10.66;55.95;101095.97;5179743;28;20497;-54
2022/04/25 01:38:06;;;;;;;14.43;9.25;;;;;;;10.74;56.05;101098.72;5182042;28;20429;-54
2022/04/25 01:40:40;;;;;;;17.05;8.90;;;;;;;10.73;55.83;101097.06;5185654;28;20415;-51
2022/04/25 01:43:13;;;;;;;20.33;8.48;;;;;;;10.77;56.01;101111.63;5183537;28;20407;-52
2022/04/25 01:45:45;;;;;;;15.63;8.50;;;;;;;10.75;55.95;101105.69;5184252;28;20423;-55
2022/04/25 01:48:18;;;;;;;20.20;9.10;;;;;;;10.71;55.98;101104.28;5183967;28;20754;-51
2022/04/25 01:50:50;;;;;;;17.77;9.70;;;;;;;10.73;56.12;101108.44;5184998;28;20434;-50
2022/04/25 01:53:23;;;;;;;24.08;9.63;;;;;;;10.74;55.78;101099.53;5178751;28;20422;-53
2022/04/25 01:55:57;;;;;;;20.30;9.70;;;;;;;10.79;55.91;101096.47;5181711;28;20423;-51
2022/04/25 01:58:30;;;;;;;24.30;9.57;;;;;;;10.46;55.99;101040.56;5184651;28;20414;-50
2022/04/25 02:01:06;;;;;;;18.10;8.87;;;;;;;10.84;55.87;101103.00;5182371;28;20445;-52
2022/04/25 02:03:38;;;;;;;17.80;9.65;;;;;;;10.86;55.87;101092.28;5175705;28;20958;-49
2022/04/25 02:06:11;;;;;;;20.70;9.10;;;;;;;10.82;55.98;101081.16;5179501;28;21334;-55
2022/04/25 02:08:44;;;;;;;18.83;8.38;;;;;;;10.88;55.91;101090.34;5187644;28;20762;-51
2022/04/25 02:11:21;;;;;;;17.73;8.73;;;;;;;10.87;55.88;101086.03;5186883;28;20980;-53
2022/04/25 02:13:55;;;;;;;21.52;9.95;;;;;;;10.82;55.87;101075.88;5183329;28;20883;-48
2022/04/25 02:16:28;;;;;;;17.73;8.02;;;;;;;10.87;55.82;101083.38;5184161;28;20542;-46
2022/04/25 02:19:00;;;;;;;17.63;9.43;;;;;;;10.89;56.09;101086.69;5185183;28;20510;-52
2022/04/25 02:21:33;;;;;;;24.95;10.15;;;;;;;10.89;56.05;101084.06;5186039;28;20521;-50
2022/04/25 02:24:06;;;;;;;19.58;9.43;;;;;;;10.90;55.95;101077.81;5185067;28;20413;-47
2022/04/25 02:26:40;;;;;;;19.88;9.40;;;;;;;10.91;56.02;101084.75;5181805;28;20438;-51
2022/04/25 02:29:13;;;;;;;25.67;10.63;;;;;;;10.89;56.09;101081.41;5185816;28;22871;-48
2022/04/25 02:31:45;;;;;;;20.35;9.80;;;;;;;10.87;56.06;101077.25;5185437;28;20415;-48
2022/04/25 02:34:18;;;;;;;19.92;10.07;;;;;;;10.90;56.06;101083.09;5187100;28;20407;-51
2022/04/25 02:36:50;;;;;;;19.42;10.20;;;;;;;10.93;56.24;101084.59;5184490;28;20909;-53
2022/04/25 02:39:22;;;;;;;26.05;10.57;;;;;;;10.86;56.16;101081.69;5180094;28;20411;-52
2022/04/25 02:41:56;;;;;;;24.45;10.00;;;;;;;10.97;56.31;101081.53;5184965;28;20499;-51
2022/04/25 02:44:29;;;;;;;23.33;10.70;;;;;;;10.95;56.19;101080.84;5184770;28;20502;-49
2022/04/25 02:47:01;;;;;;;18.42;11.10;;;;;;;10.96;56.25;101077.22;5186106;28;20512;-49
2022/04/25 02:49:33;;;;;;;16.10;9.45;;;;;;;11.02;56.42;101084.53;5183383;28;20426;-55
2022/04/25 02:52:07;;;;;;;24.35;11.70;;;;;;;11.01;56.58;101072.31;5186751;28;20756;-50
2022/04/25 02:54:39;;;;;;;21.83;10.63;;;;;;;10.98;56.52;101067.31;5183149;28;20430;-52
2022/04/25 02:57:13;;;;;;;23.98;11.95;;;;;;;11.01;56.54;101069.69;5184084;28;22449;-49
2022/04/25 02:59:45;;;;;;;20.02;10.70;;;;;;;10.93;56.53;101069.59;5184246;28;20431;-48
2022/04/25 03:02:18;;;;;;;22.98;11.90;;;;;;;10.95;56.85;101075.53;5184936;28;20417;-48
2022/04/25 03:04:50;;;;;;;24.52;11.35;;;;;;;10.88;56.72;101063.91;5182894;28;20429;-51
2022/04/25 03:07:23;;;;;;;21.00;11.85;;;;;;;10.99;56.60;101081.38;5184509;28;20513;-46
2022/04/25 03:09:55;;;;;;;22.25;12.10;;;;;;;10.96;56.73;101071.94;5184593;28;20423;-48
2022/04/25 03:12:30;;;;;;;20.02;12.40;;;;;;;10.94;56.88;101076.53;5185226;28;21649;-51
2022/04/25 03:15:02;;;;;;;21.30;11.45;;;;;;;10.85;57.05;101080.06;5186066;28;20422;-51
2022/04/25 03:17:34;;;;;;;18.63;11.57;;;;;;;10.77;57.05;101072.84;5179076;28;20509;-51
2022/04/25 03:20:09;;;;;;;19.25;11.98;;;;;;;10.77;57.24;101072.00;5182948;28;20463;-50
2022/04/25 03:22:41;;;;;;;21.77;13.23;;;;;;;10.68;57.32;101068.41;5184814;28;20431;-50
2022/04/25 03:25:13;;;;;;;23.67;13.32;;;;;;;10.79;57.13;101080.63;5185017;28;20883;-49
2022/04/25 03:27:47;;;;;;;18.02;13.00;;;;;;;10.73;57.48;101079.41;5186527;28;20415;-54
2022/04/25 03:30:20;;;;;;;23.70;12.73;;;;;;;10.67;57.30;101085.25;5185858;28;20744;-51
2022/04/25 03:32:53;;;;;;;21.20;13.30;;;;;;;10.65;57.47;101086.38;5187940;28;20449;-51
2022/04/25 03:35:26;;;;;;;22.15;12.70;;;;;;;10.67;57.46;101082.63;5189851;28;20411;-46
2022/04/25 03:37:59;;;;;;;17.35;12.43;;;;;;;10.69;57.38;101090.41;5178862;28;20497;-49
2022/04/25 03:40:31;;;;;;;24.23;13.45;;;;;;;10.64;57.40;101095.28;5187281;28;20517;-47
2022/04/25 03:43:06;;;;;;;21.75;13.40;;;;;;;10.55;57.79;101089.88;5194444;28;20760;-51
2022/04/25 03:45:40;;;;;;;19.90;12.40;;;;;;;10.49;57.63;101093.09;5187293;28;20434;-49
2022/04/25 03:48:13;;;;;;;23.48;12.88;;;;;;;10.48;57.58;101094.06;5191823;28;20824;-50
2022/04/25 03:50:45;;;;;;;22.05;13.32;;;;;;;10.33;57.44;101066.44;5183423;28;20481;-51
2022/04/25 03:53:18;;;;;;;26.23;13.93;;;;;;;10.51;57.63;101088.50;5182263;28;20518;-52
2022/04/25 03:58:41;;;;;;;19.95;12.93;;;;;;;10.34;57.35;101065.47;5188266;28;20497;-49
2022/04/25 04:01:14;;;;;;;22.52;13.98;;;;;;;10.57;57.46;101097.66;5187997;28;20419;-48
2022/04/25 04:03:46;;;;;;;22.33;13.63;;;;;;;10.58;57.26;101100.16;5190401;28;20415;-51
2022/04/25 04:06:19;;;;;;;24.33;13.27;;;;;;;10.53;57.21;101081.28;5190097;28;20427;-49
2022/04/25 04:08:51;;;;;;;20.52;12.50;;;;;;;10.57;57.31;101098.50;5185741;28;20406;-50
2022/04/25 04:11:45;;;;;;;26.05;14.48;;;;;;;10.55;57.36;101099.63;5185660;28;20399;-51
2022/04/25 04:14:17;;;;;;;24.30;13.85;;;;;;;10.52;57.32;101106.00;5196617;28;20790;-47
2022/04/25 04:16:50;;;;;;;22.60;14.60;;;;;;;10.51;57.51;101104.34;5188356;28;20482;-48
2022/04/25 04:19:22;;;;;;;20.08;12.20;;;;;;;10.49;57.41;101102.81;5184923;28;20502;-45
2022/04/25 04:21:55;;;;;;;21.85;12.82;;;;;;;10.55;57.56;101104.91;5187044;28;20430;-48
2022/04/25 04:24:27;;;;;;;20.38;12.20;;;;;;;10.53;57.57;101112.97;5188233;28;20407;-48
2022/04/25 04:27:01;;;;;;;21.73;12.48;;;;;;;10.36;57.57;101079.38;5185297;28;20434;-49
2022/04/25 04:29:36;;;;;;;21.83;12.65;;;;;;;10.46;57.34;101098.66;5186242;28;20438;-52
2022/04/25 04:32:10;;;;;;;24.90;12.32;;;;;;;10.48;57.78;101107.28;5187541;28;20811;-49
2022/04/25 04:34:42;;;;;;;24.42;12.93;;;;;;;10.41;57.84;101098.28;5188572;28;20403;-57
2022/04/25 04:37:15;;;;;;;18.85;13.25;;;;;;;10.49;57.68;101127.41;5186443;28;20439;-56
2022/04/25 04:39:47;;;;;;;23.08;13.27;;;;;;;10.42;57.73;101115.75;5185444;28;20465;-47
2022/04/25 04:42:19;;;;;;;18.45;12.63;;;;;;;10.45;57.79;101126.03;5186534;28;20497;-48
2022/04/25 04:44:53;;;;;;;25.80;14.20;;;;;;;10.47;58.01;101126.75;5184335;28;20411;-46
2022/04/25 04:47:26;;;;;;;22.07;13.03;;;;;;;10.48;58.12;101131.03;5148307;28;20498;-50
2022/04/25 04:49:59;;;;;;;26.80;14.25;;;;;;;10.49;58.04;101137.16;5178312;28;20445;-46
2022/04/25 04:52:31;;;;;;;21.95;12.75;;;;;;;10.50;58.16;101139.66;5185844;28;20431;-47
2022/04/25 04:55:04;;;;;;;26.77;14.57;;;;;;;10.53;58.13;101147.31;5186197;28;20438;-51
2022/04/25 04:57:38;;;;;;;22.80;14.45;;;;;;;10.41;58.36;101151.06;5182231;28;20503;-47
2022/04/25 05:00:14;;;;;;;21.55;13.05;;;;;;;10.34;58.38;101150.81;5185740;28;20461;-50
2022/04/25 05:02:47;;;;;;;20.25;13.10;;;;;;;10.28;58.56;101151.38;5185244;28;20418;-49
2022/04/25 05:05:20;;;;;;;21.45;14.50;;;;;;;10.23;58.53;101143.00;5188727;28;20785;-49
2022/04/25 05:07:52;;;;;;;24.52;15.57;;;;;;;10.28;58.48;101151.38;5185819;28;20423;-46
2022/04/25 05:10:25;;;;;;;24.08;15.88;;;;;;;10.35;58.59;101162.19;5184545;28;20462;-51
2022/04/25 05:12:58;;;;;;;24.63;15.15;;;;;;;10.18;58.61;101145.22;5179482;28;20403;-48
2022/04/25 05:15:32;;;;;;;27.43;16.10;;;;;;;10.33;58.76;101169.41;5185185;28;20410;-53
2022/04/25 05:18:04;;;;;;;24.52;15.95;;;;;;;10.33;58.83;101162.31;5184332;28;20528;-50
2022/04/25 05:20:37;;;;;;;21.30;15.67;;;;;;;10.30;58.79;101164.41;5188547;28;20490;-50
2022/04/25 05:23:10;;;;;;;26.95;15.68;;;;;;;10.26;58.87;101161.22;5186468;28;20426;-54
2022/04/25 05:25:42;;;;;;;24.75;15.40;;;;;;;9.67;58.84;101068.00;5184770;28;20412;-48
2022/04/25 05:28:15;;;;;;;21.13;15.32;;;;;;;10.25;58.99;101171.88;5189957;28;20410;-49
2022/04/25 05:30:49;;;;;;;22.98;15.60;;;;;;;10.20;59.46;101163.56;5198391;28;20455;-48
2022/04/25 05:33:21;;;;;;;27.42;15.18;;;;;;;10.19;59.57;101156.59;5192143;28;20419;-52
2022/04/25 05:35:54;;;;;;;20.98;15.30;;;;;;;10.23;59.37;101169.38;5185135;28;20490;-49
2022/04/25 05:38:26;;;;;;;24.75;16.63;;;;;;;10.19;59.51;101177.72;5188936;28;20427;-51
2022/04/25 05:40:59;;;;;;;27.67;16.40;;;;;;;10.18;59.54;101181.34;5189603;28;20946;-53
2022/04/25 05:43:31;;;;;;;22.33;15.03;;;;;;;10.13;59.67;101179.94;5187646;28;20791;-52
2022/04/25 05:46:05;;;;;;;25.48;15.95;;;;;;;10.16;59.81;101184.97;5187565;28;20419;-52
2022/04/25 05:54:18;;;;;;;30.73;16.70;;;;;;;10.22;59.91;101201.19;5196250;28;20413;-53
2022/04/25 05:56:51;;;;;;;23.90;16.73;;;;;;;10.22;59.93;101203.81;5201501;28;20505;-54
2022/04/25 05:59:23;;;;;;;25.63;15.20;;;;;;;10.21;59.92;101212.72;5185242;28;20419;-50
2022/04/25 06:01:58;;;;;;;30.52;15.77;;;;;;;10.20;59.91;101200.50;5185643;28;20892;-50
2022/04/25 06:04:30;;;;;;;21.00;14.18;;;;;;;10.34;59.81;101214.16;5189635;28;20440;-50
2022/04/25 06:07:04;;;;;;;21.77;14.88;;;;;;;10.38;59.79;101209.44;5202111;28;20473;-52
2022/04/25 06:09:36;;;;;;;24.63;15.13;;;;;;;10.39;60.09;101208.47;5189499;28;20421;-51
2022/04/25 06:12:10;;;;;;;23.58;14.05;;;;;;;10.35;60.12;101209.72;5188328;28;20436;-52
2022/04/25 06:14:44;;;;;;;21.80;14.32;;;;;;;10.28;59.97;101203.31;5185752;28;22103;-54
2022/04/25 06:17:18;;;;;;;21.80;13.27;;;;;;;10.38;60.19;101217.38;5186680;28;20889;-49
2022/04/25 06:19:51;;;;;;;20.00;13.65;;;;;;;10.40;60.39;101223.31;5186160;28;20407;-50
2022/04/25 06:22:24;;;;;;;18.45;12.50;;;;;;;10.44;60.45;101219.44;5182440;28;20410;-53
2022/04/25 06:24:56;;;;;;;20.05;12.52;;;;;;;10.39;60.43;101221.66;5182315;28;20438;-51
2022/04/25 06:27:29;;;;;;;21.30;12.32;;;;;;;10.41;60.59;101219.72;5183662;28;20429;-51
2022/04/25 06:30:01;;;;;;;21.70;12.23;;;;;;;10.39;60.64;101224.31;5183998;28;20427;-49
2022/04/25 06:32:36;;;;;;;19.45;12.13;;;;;;;10.39;60.67;101226.94;5185094;28;20874;-48
2022/04/25 06:35:11;;;;;;;20.20;12.87;;;;;;;10.37;60.65;101219.19;5184733;28;20426;-50
2022/04/25 06:37:43;;;;;;;19.33;11.32;;;;;;;10.37;60.52;101236.78;5188347;28;20411;-54
2022/04/25 06:40:16;;;;;;;17.40;11.45;;;;;;;10.38;60.74;101231.41;5189182;28;20832;-52
2022/04/25 06:42:51;;;;;;;17.70;11.35;;;;;;;10.33;60.58;101232.78;5188666;28;20470;-49
2022/04/25 06:45:23;;;;;;;20.77;12.68;;;;;;;10.33;60.49;101240.69;5187043;28;20457;-50
2022/04/25 06:47:57;;;;;;;19.83;11.93;;;;;;;10.33;60.59;101232.78;5192371;28;20529;-51
2022/04/25 06:50:30;;;;;;;18.15;10.35;;;;;;;10.38;60.25;101228.75;5190142;28;20433;-51
2022/04/25 06:53:03;;;;;;;15.63;11.15;;;;;;;10.42;60.20;101237.22;5206226;28;20411;-50
2022/04/25 06:55:35;;;;;;;20.08;10.57;;;;;;;10.47;60.31;101237.66;5185675;28;20419;-51
2022/04/25 06:58:07;;;;;;;18.58;10.45;;;;;;;10.46;60.26;101241.25;5187495;28;20425;-48
2022/04/25 07:00:40;;;;;;;18.00;10.73;;;;;;;10.42;60.14;101233.75;5189084;28;20419;-49
2022/04/25 07:03:13;;;;;;;14.25;9.98;;;;;;;10.39;60.18;101221.66;5189622;28;20415;-50
2022/04/25 07:05:48;;;;;;;19.02;10.27;;;;;;;10.47;59.94;101240.28;5189819;28;20526;-50
2022/04/25 07:08:21;;;;;;;18.23;10.63;;;;;;;10.45;59.90;101231.66;5208555;28;20672;-51
2022/04/25 07:10:53;;;;;;;20.50;10.63;;;;;;;10.54;59.69;101251.97;5186336;28;20413;-52
2022/04/25 07:13:25;;;;;;;20.15;10.82;;;;;;;10.55;59.71;101244.88;5170959;28;20933;-50
2022/04/25 07:15:58;;;;;;;16.73;9.73;;;;;;;10.53;59.67;101244.16;5187346;28;20420;-55
2022/04/25 07:18:32;;;;;;;19.50;10.32;;;;;;;10.47;59.85;101248.22;5173412;28;20421;-51
2022/04/25 07:28:48;;;;;;;15.05;9.20;;;;;;;10.44;59.91;101235.28;5178494;28;20435;-53
2022/04/25 07:30:17;;;;;;;18.15;9.90;;;;;;;10.69;59.33;101238.34;5183779;28;20396;-53
2022/04/25 07:32:49;;;;;;;16.48;10.18;;;;;;;10.86;59.43;101256.09;5186790;28;20427;-51
2022/04/25 07:35:23;;;;;;;17.60;10.65;;;;;;;10.95;59.38;101255.25;5187564;28;20558;-52
2022/04/25 07:37:56;;;;;;;15.93;9.93;;;;;;;10.95;59.15;101262.34;5184250;28;20419;-54
2022/04/25 07:40:28;;;;;;;16.00;8.73;;;;;;;10.65;58.98;101219.28;5186622;28;20415;-52
2022/04/25 07:43:01;;;;;;;18.65;10.55;;;;;;;10.88;58.93;101259.44;5187415;28;20417;-52
2022/04/25 07:45:33;;;;;;;16.45;9.32;;;;;;;10.89;58.91;101266.38;5185841;28;20465;-50
2022/04/25 07:48:06;;;;;;;17.30;9.05;;;;;;;10.88;58.95;101269.19;5186060;28;20415;-50
2022/04/25 07:50:40;;;;;;;17.42;10.15;;;;;;;10.88;58.82;101267.38;5187232;28;20493;-50
2022/04/25 07:53:12;;;;;;;18.27;11.38;;;;;;;10.84;58.75;101250.13;5186262;28;28806;-54
2022/04/25 07:55:45;;;;;;;15.30;9.20;;;;;;;10.93;58.57;101267.78;5182704;28;20484;-50
2022/04/25 07:58:18;;;;;;;16.15;10.15;;;;;;;10.99;58.34;101271.66;5187102;28;20821;-51
2022/04/25 08:00:50;;;;;;;17.60;10.05;;;;;;;11.01;58.40;101278.47;5188992;28;20419;-50
2022/04/25 08:03:22;;;;;;;18.45;9.85;;;;;;;11.01;58.30;101278.47;5184856;28;20846;-50
2022/04/25 08:05:57;;;;;;;18.67;10.70;;;;;;;10.92;58.52;101274.03;5187931;28;20492;-54
2022/04/25 08:08:29;;;;;;;17.00;10.10;;;;;;;11.00;58.39;101281.28;5185983;28;20895;-54
2022/04/25 08:11:02;;;;;;;17.08;10.00;;;;;;;11.09;58.23;101277.78;5194508;28;20454;-53
2022/04/25 08:19:14;;;;;;;14.43;9.32;;;;;;;11.35;57.75;101251.53;5186854;28;20422;-51
2022/04/25 08:21:48;;;;;;;19.17;10.53;;;;;;;11.03;57.50;101173.44;5188459;28;20479;-49
2022/04/25 08:24:21;;;;;;;22.67;10.48;;;;;;;11.49;57.57;101253.72;5183875;28;20471;-49
2022/04/25 08:26:55;;;;;;;16.45;9.65;;;;;;;11.69;57.56;101272.13;5191136;28;20449;-50
2022/04/25 08:29:28;;;;;;;19.95;10.50;;;;;;;11.71;57.57;101273.66;5188500;28;20419;-52
2022/04/25 08:32:00;;;;;;;12.90;9.70;;;;;;;11.74;57.40;101270.72;5189271;28;20422;-50
2022/04/25 08:34:33;;;;;;;15.30;9.20;;;;;;;11.65;57.60;101274.25;5189389;28;20418;-51
2022/04/25 08:37:08;;;;;;;17.10;9.88;;;;;;;11.43;57.71;101259.59;5194995;28;20989;-48
2022/04/25 08:39:40;;;;;;;17.23;9.70;;;;;;;11.53;57.77;101281.53;5191178;28;20962;-53
2022/04/25 08:42:13;;;;;;;13.85;10.57;;;;;;;11.44;57.50;101266.53;5187852;28;20417;-48
2022/04/25 08:44:48;;;;;;;15.52;10.57;;;;;;;11.63;57.47;101296.53;5190438;28;20404;-51
2022/04/25 08:47:23;;;;;;;19.45;10.60;;;;;;;11.70;57.30;101292.31;5189711;28;20925;-52
2022/04/25 08:49:57;;;;;;;15.25;9.93;;;;;;;11.73;57.08;101303.44;5180704;28;20407;-53
2022/04/25 08:52:32;;;;;;;19.08;10.32;;;;;;;11.70;57.07;101297.59;5183736;28;20929;-51
2022/04/25 08:55:05;;;;;;;19.40;10.20;;;;;;;11.82;56.96;101301.72;5176198;28;20504;-54
2022/04/25 08:57:39;;;;;;;17.17;10.80;;;;;;;11.80;56.81;101309.00;5161457;28;20513;-49
2022/04/25 09:00:13;;;;;;;15.00;10.23;;;;;;;11.65;56.97;101311.28;5161431;28;20463;-52
2022/04/25 09:02:47;;;;;;;13.88;9.98;;;;;;;11.61;56.98;101315.19;5156913;28;20420;-54
2022/04/25 09:05:19;;;;;;;14.43;10.10;;;;;;;11.63;56.95;101323.81;5159290;28;20914;-51
2022/04/25 09:07:54;;;;;;;15.48;9.30;;;;;;;11.52;57.13;101327.47;5163706;28;20431;-53
2022/04/25 09:10:28;;;;;;;17.88;10.68;;;;;;;11.62;56.93;101321.34;5156516;28;20523;-52
2022/04/25 09:13:00;;;;;;;15.68;10.50;;;;;;;11.55;56.83;101318.41;5160023;28;20431;-52
2022/04/25 09:15:34;;;;;;;16.13;10.40;;;;;;;11.58;56.82;101319.94;5159097;28;20503;-54
2022/04/25 09:18:07;;;;;;;17.55;10.27;;;;;;;11.70;56.62;101329.34;5162297;28;20468;-54
2022/04/25 09:20:40;;;;;;;18.83;10.88;;;;;;;11.72;56.65;101327.41;5160313;28;20513;-51
2022/04/25 09:23:35;;;;;;;19.90;10.57;;;;;;;11.79;56.39;101325.84;5161684;28;24411;-50
2022/04/25 09:26:15;;;;;;;17.80;11.45;;;;;;;11.80;56.48;101340.75;5162136;28;20475;-51
2022/04/25 09:28:53;;;;;;;18.93;11.30;;;;;;;11.66;56.71;101333.28;5162080;28;20526;-53
2022/04/25 09:31:27;;;;;;;20.20;11.70;;;;;;;11.68;56.56;101332.16;5149447;28;20472;-51
2022/04/25 09:34:59;;;;;;;18.02;10.65;;;;;;;11.83;56.43;101334.31;5163620;28;20413;-52
2022/04/25 09:37:10;;;;;;;19.33;10.77;;;;;;;11.70;56.43;101297.59;5160146;28;20519;-50
2022/04/25 09:39:46;;;;;;;24.45;12.63;;;;;;;11.85;56.34;101337.69;5160794;28;20418;-51
2022/04/25 09:42:30;;;;;;;17.42;10.90;;;;;;;11.70;56.48;101337.28;5161708;28;20416;-47
2022/04/25 09:45:03;;;;;;;19.70;11.85;;;;;;;11.71;56.60;101349.56;5161683;28;20448;-47
2022/04/25 09:47:39;;;;;;;16.95;11.50;;;;;;;11.59;56.67;101342.78;5162764;28;20491;-52
2022/04/25 09:50:14;;;;;;;18.48;11.13;;;;;;;11.76;56.46;101349.94;5160925;28;20426;-52
2022/04/25 09:52:54;;;;;;;19.25;12.80;;;;;;;11.46;56.35;101301.63;5158427;28;20429;-51
2022/04/25 09:55:30;;;;;;;18.05;13.60;;;;;;;11.53;56.30;101334.44;5168904;28;20772;-47
2022/04/25 09:58:17;;;;;;;23.85;13.15;;;;;;;11.65;56.54;101352.78;5184412;28;20536;-48
2022/04/25 10:00:53;;;;;;;21.23;13.43;;;;;;;11.39;56.45;101326.94;5182884;28;20434;-50
2022/04/25 10:03:35;;;;;;;22.52;14.65;;;;;;;11.57;56.48;101360.59;5177819;28;20481;-54
2022/04/25 10:06:08;;;;;;;20.55;14.35;;;;;;;11.57;56.31;101360.59;5178611;28;20418;-52
2022/04/25 10:08:42;;;;;;;20.55;13.48;;;;;;;11.65;56.41;101376.59;5177597;28;20495;-47
2022/04/25 10:11:19;;;;;;;17.67;11.80;;;;;;;11.58;56.65;101388.72;5179041;28;21168;-48
2022/04/25 10:13:52;;;;;;;17.40;12.75;;;;;;;11.56;56.54;101382.75;5180134;28;20426;-49
2022/04/25 10:16:25;;;;;;;18.23;12.38;;;;;;;11.49;56.61;101385.97;5175235;28;20418;-52
2022/04/25 10:19:02;;;;;;;19.67;12.32;;;;;;;11.36;56.88;101389.88;5178119;28;20415;-49
2022/04/25 10:21:37;;;;;;;18.15;12.07;;;;;;;11.17;57.03;101390.72;5177654;28;20468;-50
2022/04/25 10:24:10;;;;;;;18.77;11.87;;;;;;;11.05;57.09;101388.22;5183092;28;21168;-49
2022/04/25 10:26:44;;;;;;;21.73;12.77;;;;;;;11.13;57.00;101407.84;5185180;28;20593;-48
2022/04/25 10:29:21;;;;;;;19.27;11.73;;;;;;;11.11;56.92;101393.94;5180070;28;20429;-48
2022/04/25 10:32:00;;;;;;;16.80;11.40;;;;;;;11.04;57.12;101397.13;5177682;28;20423;-46
2022/04/25 10:34:54;;;;;;;17.73;10.43;;;;;;;11.04;56.89;101397.13;5182132;28;20903;-48
2022/04/25 10:37:31;;;;;;;16.73;10.50;;;;;;;11.06;56.75;101399.66;5174349;28;20895;-49
2022/04/25 10:40:06;;;;;;;19.83;11.88;;;;;;;11.06;56.87;101411.03;5182656;28;20428;-50
2022/04/25 10:45:58;;;;;;;17.83;11.57;;;;;;;10.96;56.70;101407.56;5180873;28;20552;-49
2022/04/25 10:49:09;;;;;;;16.92;11.48;;;;;;;10.89;57.00;101401.16;5179763;28;20413;-52
2022/04/25 10:51:42;;;;;;;18.33;12.73;;;;;;;10.84;56.85;101379.63;5182991;28;20477;-54
2022/04/25 10:54:15;;;;;;;20.40;11.88;;;;;;;11.16;56.76;101415.50;5178887;28;20435;-50
2022/04/25 10:57:16;;;;;;;15.98;12.05;;;;;;;11.38;56.27;101407.28;5181448;28;20419;-50
2022/04/25 10:59:50;;;;;;;16.05;11.52;;;;;;;11.45;56.43;101411.00;5176881;28;25909;-49
2022/04/25 11:02:24;;;;;;;16.40;11.38;;;;;;;11.51;56.39;101412.25;5179872;28;20858;-52
2022/04/25 11:05:37;;;;;;;16.02;10.82;;;;;;;11.48;56.37;101408.09;5178857;28;20545;-52
2022/04/25 11:08:31;;;;;;;17.27;10.95;;;;;;;11.45;56.35;101416.28;5160390;28;20496;-50
2022/04/25 11:11:14;;;;;;;18.58;11.95;;;;;;;11.29;56.55;101416.88;5180632;28;20518;-49
2022/04/25 11:14:13;;;;;;;19.77;12.35;;;;;;;11.21;56.66;101435.28;5181209;28;20446;-51
2022/04/25 11:17:10;;;;;;;19.90;12.15;;;;;;;11.13;56.62;101429.81;5179625;28;20442;-52
2022/04/25 11:19:51;;;;;;;22.77;12.20;;;;;;;11.08;56.45;101430.22;5178046;28;20423;-49
2022/04/25 11:22:49;;;;;;;20.23;12.97;;;;;;;11.04;56.62;101444.69;5179008;28;20478;-42
2022/04/25 11:25:41;;;;;;;20.57;12.80;;;;;;;11.00;56.50;101445.13;5182347;28;20792;-53
2022/04/25 11:28:14;;;;;;;23.90;13.67;;;;;;;10.98;56.63;101452.34;5181320;28;21572;-51
2022/04/25 11:31:23;;;;;;;19.17;12.93;;;;;;;10.89;56.72;101446.06;5179635;28;20427;-53
2022/04/25 11:34:00;;;;;;;24.77;14.18;;;;;;;10.85;56.91;101449.97;5178860;28;20413;-51
2022/04/25 11:36:39;;;;;;;20.13;13.38;;;;;;;10.81;57.04;101448.59;5182593;28;20454;-52
2022/04/25 11:42:07;;;;;;;19.67;13.30;;;;;;;10.97;56.87;101446.25;5181514;28;20427;-53
2022/04/25 11:44:40;;;;;;;18.55;13.50;;;;;;;10.95;56.98;101448.16;5182747;28;20522;-53
2022/04/25 11:47:13;;;;;;;17.38;12.90;;;;;;;11.07;56.99;101459.47;5182318;28;20429;-51
2022/04/25 11:49:46;;;;;;;16.45;11.90;;;;;;;11.02;57.11;101451.94;5185666;28;20460;-47
2022/04/25 11:52:20;;;;;;;19.67;12.52;;;;;;;10.99;57.16;101456.66;5186168;28;20863;-48
2022/04/25 11:54:55;;;;;;;16.25;11.80;;;;;;;11.06;57.35;101453.34;5186026;28;20420;-48
2022/04/25 11:57:28;;;;;;;13.90;10.98;;;;;;;11.03;57.24;101456.25;5166384;28;20432;-49
2022/04/25 12:00:10;;;;;;;15.10;10.27;;;;;;;10.92;57.69;101451.09;5171989;28;20935;-47
2022/04/25 12:02:44;;;;;;;17.13;10.25;;;;;;;10.95;57.82;101463.19;5169393;28;20423;-49
2022/04/25 12:05:29;;;;;;;15.68;10.68;;;;;;;10.94;57.83;101465.00;5170812;28;20413;-48
2022/04/25 12:16:39;;;;;;;12.13;9.60;;;;;;;11.03;58.06;101463.34;5168325;28;20414;-49
2022/04/25 12:19:12;;;;;;;15.93;11.60;;;;;;;11.03;58.20;101480.06;5164520;28;20430;-50
2022/04/25 12:21:48;;;;;;;17.38;11.75;;;;;;;11.00;58.29;101468.91;5160724;28;20421;-49
2022/04/25 12:24:22;;;;;;;18.83;12.03;;;;;;;11.06;58.18;101473.66;5163018;28;20425;-49